sensor_id;sensor_type;location;lat;lon;timestamp;temperature;humidity
76607;DHT22;65498;50.916;4.698;2023-01-31T00:01:36;22.40;39.90
76607;DHT22;65498;50.916;4.698;2023-01-31T00:04:07;22.40;39.90
76607;DHT22;65498;50.916;4.698;2023-01-31T00:06:43;22.40;40.00
76607;DHT22;65498;50.916;4.698;2023-01-31T00:09:09;22.30;40.20
76607;DHT22;65498;50.916;4.698;2023-01-31T00:11:37;22.20;41.10
76607;DHT22;65498;50.916;4.698;2023-01-31T00:14:06;22.20;40.50
76607;DHT22;65498;50.916;4.698;2023-01-31T00:16:34;22.20;40.30
76607;DHT22;65498;50.916;4.698;2023-01-31T00:19:02;22.30;40.20
76607;DHT22;65498;50.916;4.698;2023-01-31T00:21:30;22.30;40.10
76607;DHT22;65498;50.916;4.698;2023-01-31T00:23:58;22.40;40.10
76607;DHT22;65498;50.916;4.698;2023-01-31T00:26:28;22.40;40.60
76607;DHT22;65498;50.916;4.698;2023-01-31T00:28:58;22.40;39.90
76607;DHT22;65498;50.916;4.698;2023-01-31T00:31:27;22.40;40.00
76607;DHT22;65498;50.916;4.698;2023-01-31T00:33:56;22.40;39.90
76607;DHT22;65498;50.916;4.698;2023-01-31T00:36:31;22.30;40.30
76607;DHT22;65498;50.916;4.698;2023-01-31T00:38:57;22.30;40.60
76607;DHT22;65498;50.916;4.698;2023-01-31T00:41:26;22.30;40.60
76607;DHT22;65498;50.916;4.698;2023-01-31T00:43:54;22.30;40.50
76607;DHT22;65498;50.916;4.698;2023-01-31T00:46:23;22.30;40.90
76607;DHT22;65498;50.916;4.698;2023-01-31T00:48:51;22.20;41.20
76607;DHT22;65498;50.916;4.698;2023-01-31T00:51:19;22.10;41.50
76607;DHT22;65498;50.916;4.698;2023-01-31T00:53:47;22.00;41.60
76607;DHT22;65498;50.916;4.698;2023-01-31T00:56:17;21.90;41.90
76607;DHT22;65498;50.916;4.698;2023-01-31T00:58:45;21.80;42.20
76607;DHT22;65498;50.916;4.698;2023-01-31T01:01:19;21.70;42.30
76607;DHT22;65498;50.916;4.698;2023-01-31T01:03:44;21.70;42.50
76607;DHT22;65498;50.916;4.698;2023-01-31T01:06:12;21.60;42.40
76607;DHT22;65498;50.916;4.698;2023-01-31T01:08:40;21.60;42.40
76607;DHT22;65498;50.916;4.698;2023-01-31T01:11:14;21.60;42.40
76607;DHT22;65498;50.916;4.698;2023-01-31T01:13:42;21.60;42.30
76607;DHT22;65498;50.916;4.698;2023-01-31T01:16:15;21.60;42.30
76607;DHT22;65498;50.916;4.698;2023-01-31T01:18:43;21.60;42.40
76607;DHT22;65498;50.916;4.698;2023-01-31T01:21:15;21.60;42.40
76607;DHT22;65498;50.916;4.698;2023-01-31T01:23:43;21.60;42.50
76607;DHT22;65498;50.916;4.698;2023-01-31T01:26:14;21.60;42.30
76607;DHT22;65498;50.916;4.698;2023-01-31T01:29:02;21.60;42.20
76607;DHT22;65498;50.916;4.698;2023-01-31T01:31:30;21.60;42.70
76607;DHT22;65498;50.916;4.698;2023-01-31T01:34:03;21.60;42.00
76607;DHT22;65498;50.916;4.698;2023-01-31T01:36:33;21.60;42.00
76607;DHT22;65498;50.916;4.698;2023-01-31T01:39:03;21.60;42.30
76607;DHT22;65498;50.916;4.698;2023-01-31T01:41:31;21.50;42.30
76607;DHT22;65498;50.916;4.698;2023-01-31T01:44:39;21.40;42.40
76607;DHT22;65498;50.916;4.698;2023-01-31T01:46:40;21.50;42.40
76607;DHT22;65498;50.916;4.698;2023-01-31T01:49:17;21.40;42.40
76607;DHT22;65498;50.916;4.698;2023-01-31T01:51:47;21.40;42.40
76607;DHT22;65498;50.916;4.698;2023-01-31T01:54:18;21.40;42.30
76607;DHT22;65498;50.916;4.698;2023-01-31T01:56:48;21.40;42.70
76607;DHT22;65498;50.916;4.698;2023-01-31T01:59:19;21.40;42.80
76607;DHT22;65498;50.916;4.698;2023-01-31T02:01:48;21.40;42.80
76607;DHT22;65498;50.916;4.698;2023-01-31T02:04:18;21.60;42.60
76607;DHT22;65498;50.916;4.698;2023-01-31T02:06:47;21.70;42.00
76607;DHT22;65498;50.916;4.698;2023-01-31T02:09:24;21.80;41.80
76607;DHT22;65498;50.916;4.698;2023-01-31T02:11:48;21.80;41.60
76607;DHT22;65498;50.916;4.698;2023-01-31T02:14:16;21.70;41.80
76607;DHT22;65498;50.916;4.698;2023-01-31T02:16:44;21.60;42.10
76607;DHT22;65498;50.916;4.698;2023-01-31T02:19:45;21.50;42.20
76607;DHT22;65498;50.916;4.698;2023-01-31T02:24:47;21.30;42.60
76607;DHT22;65498;50.916;4.698;2023-01-31T02:30:19;21.30;42.50
76607;DHT22;65498;50.916;4.698;2023-01-31T02:32:47;21.30;42.50
76607;DHT22;65498;50.916;4.698;2023-01-31T02:41:23;21.30;42.70
76607;DHT22;65498;50.916;4.698;2023-01-31T02:43:57;21.50;42.30
76607;DHT22;65498;50.916;4.698;2023-01-31T02:52:17;21.50;41.80
76607;DHT22;65498;50.916;4.698;2023-01-31T02:55:06;21.40;42.10
76607;DHT22;65498;50.916;4.698;2023-01-31T02:57:53;21.30;42.20
76607;DHT22;65498;50.916;4.698;2023-01-31T03:00:22;21.30;42.30
76607;DHT22;65498;50.916;4.698;2023-01-31T03:02:50;21.30;42.40
76607;DHT22;65498;50.916;4.698;2023-01-31T03:05:18;21.20;42.40
76607;DHT22;65498;50.916;4.698;2023-01-31T03:07:52;21.20;42.30
76607;DHT22;65498;50.916;4.698;2023-01-31T03:13:24;21.20;42.30
76607;DHT22;65498;50.916;4.698;2023-01-31T03:18:57;21.40;42.20
76607;DHT22;65498;50.916;4.698;2023-01-31T03:21:25;21.60;42.10
76607;DHT22;65498;50.916;4.698;2023-01-31T03:23:55;21.60;42.10
76607;DHT22;65498;50.916;4.698;2023-01-31T03:26:24;21.50;41.60
76607;DHT22;65498;50.916;4.698;2023-01-31T03:28:53;21.40;41.80
76607;DHT22;65498;50.916;4.698;2023-01-31T03:31:34;21.30;42.00
76607;DHT22;65498;50.916;4.698;2023-01-31T03:34:07;21.30;42.40
76607;DHT22;65498;50.916;4.698;2023-01-31T03:42:05;21.20;42.10
76607;DHT22;65498;50.916;4.698;2023-01-31T03:44:42;21.20;42.20
76607;DHT22;65498;50.916;4.698;2023-01-31T03:47:19;21.20;42.10
76607;DHT22;65498;50.916;4.698;2023-01-31T03:49:44;21.40;42.00
76607;DHT22;65498;50.916;4.698;2023-01-31T03:52:15;21.50;41.90
76607;DHT22;65498;50.916;4.698;2023-01-31T03:54:46;21.50;42.20
76607;DHT22;65498;50.916;4.698;2023-01-31T03:57:24;21.40;41.50
76607;DHT22;65498;50.916;4.698;2023-01-31T03:59:49;21.30;41.80
76607;DHT22;65498;50.916;4.698;2023-01-31T04:02:24;21.30;41.80
76607;DHT22;65498;50.916;4.698;2023-01-31T04:04:58;21.20;41.90
76607;DHT22;65498;50.916;4.698;2023-01-31T04:07:26;21.20;42.60
76607;DHT22;65498;50.916;4.698;2023-01-31T04:09:53;21.20;42.10
76607;DHT22;65498;50.916;4.698;2023-01-31T04:12:21;21.20;42.00
76607;DHT22;65498;50.916;4.698;2023-01-31T04:14:49;21.20;42.10
76607;DHT22;65498;50.916;4.698;2023-01-31T04:17:16;21.20;42.10
76607;DHT22;65498;50.916;4.698;2023-01-31T04:19:44;21.40;42.00
76607;DHT22;65498;50.916;4.698;2023-01-31T04:22:11;21.30;41.50
76607;DHT22;65498;50.916;4.698;2023-01-31T04:24:39;21.40;41.80
76607;DHT22;65498;50.916;4.698;2023-01-31T04:27:06;21.40;41.60
76607;DHT22;65498;50.916;4.698;2023-01-31T04:29:34;21.30;41.80
76607;DHT22;65498;50.916;4.698;2023-01-31T04:32:01;21.40;41.40
76607;DHT22;65498;50.916;4.698;2023-01-31T04:34:29;21.30;41.50
76607;DHT22;65498;50.916;4.698;2023-01-31T04:36:56;21.40;41.70
76607;DHT22;65498;50.916;4.698;2023-01-31T04:39:24;21.40;41.30
76607;DHT22;65498;50.916;4.698;2023-01-31T04:41:51;21.40;41.70
76607;DHT22;65498;50.916;4.698;2023-01-31T04:44:19;21.50;41.40
76607;DHT22;65498;50.916;4.698;2023-01-31T04:46:46;21.40;41.20
76607;DHT22;65498;50.916;4.698;2023-01-31T04:49:14;21.40;41.50
76607;DHT22;65498;50.916;4.698;2023-01-31T04:51:42;21.40;41.20
76607;DHT22;65498;50.916;4.698;2023-01-31T04:54:10;21.30;41.40
76607;DHT22;65498;50.916;4.698;2023-01-31T04:56:37;21.40;41.50
76607;DHT22;65498;50.916;4.698;2023-01-31T04:59:05;21.50;41.40
76607;DHT22;65498;50.916;4.698;2023-01-31T05:01:32;21.50;41.20
76607;DHT22;65498;50.916;4.698;2023-01-31T05:04:00;21.40;41.20
76607;DHT22;65498;50.916;4.698;2023-01-31T05:06:27;21.40;41.30
76607;DHT22;65498;50.916;4.698;2023-01-31T05:08:55;21.40;41.00
76607;DHT22;65498;50.916;4.698;2023-01-31T05:11:24;21.30;41.50
76607;DHT22;65498;50.916;4.698;2023-01-31T05:13:51;21.40;41.30
76607;DHT22;65498;50.916;4.698;2023-01-31T05:16:19;21.40;41.00
76607;DHT22;65498;50.916;4.698;2023-01-31T05:18:47;21.30;41.20
76607;DHT22;65498;50.916;4.698;2023-01-31T05:21:16;21.40;41.20
76607;DHT22;65498;50.916;4.698;2023-01-31T05:23:43;21.50;41.10
76607;DHT22;65498;50.916;4.698;2023-01-31T05:26:11;21.30;41.00
76607;DHT22;65498;50.916;4.698;2023-01-31T05:28:38;21.40;41.10
76607;DHT22;65498;50.916;4.698;2023-01-31T05:31:08;21.50;41.20
76607;DHT22;65498;50.916;4.698;2023-01-31T05:33:35;21.40;40.90
76607;DHT22;65498;50.916;4.698;2023-01-31T05:36:03;21.40;41.20
76607;DHT22;65498;50.916;4.698;2023-01-31T05:38:31;21.50;41.10
76607;DHT22;65498;50.916;4.698;2023-01-31T05:40:59;21.50;40.90
76607;DHT22;65498;50.916;4.698;2023-01-31T05:43:26;21.40;41.10
76607;DHT22;65498;50.916;4.698;2023-01-31T05:45:54;21.40;41.00
76607;DHT22;65498;50.916;4.698;2023-01-31T05:48:21;21.50;40.70
76607;DHT22;65498;50.916;4.698;2023-01-31T05:50:49;21.40;40.70
76607;DHT22;65498;50.916;4.698;2023-01-31T05:53:16;21.40;41.00
76607;DHT22;65498;50.916;4.698;2023-01-31T05:55:44;21.40;40.70
76607;DHT22;65498;50.916;4.698;2023-01-31T05:58:12;21.30;40.50
76607;DHT22;65498;50.916;4.698;2023-01-31T06:00:39;21.30;40.90
76607;DHT22;65498;50.916;4.698;2023-01-31T06:03:08;21.40;41.00
76607;DHT22;65498;50.916;4.698;2023-01-31T06:05:35;21.50;40.50
76607;DHT22;65498;50.916;4.698;2023-01-31T06:08:05;21.40;40.60
76607;DHT22;65498;50.916;4.698;2023-01-31T06:10:32;21.40;40.70
76607;DHT22;65498;50.916;4.698;2023-01-31T06:13:00;21.50;40.50
76607;DHT22;65498;50.916;4.698;2023-01-31T06:15:28;21.30;40.30
76607;DHT22;65498;50.916;4.698;2023-01-31T06:17:56;21.30;40.80
76607;DHT22;65498;50.916;4.698;2023-01-31T06:20:23;21.40;40.60
76607;DHT22;65498;50.916;4.698;2023-01-31T06:22:51;21.40;40.40
76607;DHT22;65498;50.916;4.698;2023-01-31T06:25:18;21.30;40.50
76607;DHT22;65498;50.916;4.698;2023-01-31T06:27:46;21.40;40.50
76607;DHT22;65498;50.916;4.698;2023-01-31T06:30:13;21.40;40.10
76607;DHT22;65498;50.916;4.698;2023-01-31T06:32:41;21.30;40.60
76607;DHT22;65498;50.916;4.698;2023-01-31T06:35:09;21.40;40.50
76607;DHT22;65498;50.916;4.698;2023-01-31T06:37:36;21.40;40.10
76607;DHT22;65498;50.916;4.698;2023-01-31T06:40:04;21.30;40.40
76607;DHT22;65498;50.916;4.698;2023-01-31T06:42:32;21.40;41.00
76607;DHT22;65498;50.916;4.698;2023-01-31T06:45:00;21.40;40.20
76607;DHT22;65498;50.916;4.698;2023-01-31T06:47:27;21.30;40.00
76607;DHT22;65498;50.916;4.698;2023-01-31T06:49:55;21.40;40.30
76607;DHT22;65498;50.916;4.698;2023-01-31T06:52:22;21.40;40.50
76607;DHT22;65498;50.916;4.698;2023-01-31T06:54:50;21.40;40.10
76607;DHT22;65498;50.916;4.698;2023-01-31T06:57:17;21.30;40.20
76607;DHT22;65498;50.916;4.698;2023-01-31T06:59:45;21.30;40.50
76607;DHT22;65498;50.916;4.698;2023-01-31T07:02:13;21.40;40.20
76607;DHT22;65498;50.916;4.698;2023-01-31T07:04:40;21.30;40.40
76607;DHT22;65498;50.916;4.698;2023-01-31T07:07:08;21.30;40.40
76607;DHT22;65498;50.916;4.698;2023-01-31T07:09:35;21.40;40.40
76607;DHT22;65498;50.916;4.698;2023-01-31T07:12:03;21.30;40.10
76607;DHT22;65498;50.916;4.698;2023-01-31T07:14:31;21.30;40.40
76607;DHT22;65498;50.916;4.698;2023-01-31T07:16:58;21.40;40.50
76607;DHT22;65498;50.916;4.698;2023-01-31T07:19:26;21.40;40.30
76607;DHT22;65498;50.916;4.698;2023-01-31T07:21:53;21.30;40.30
76607;DHT22;65498;50.916;4.698;2023-01-31T07:24:21;21.30;40.40
76607;DHT22;65498;50.916;4.698;2023-01-31T07:26:53;21.30;40.40
76607;DHT22;65498;50.916;4.698;2023-01-31T07:29:21;21.30;40.60
76607;DHT22;65498;50.916;4.698;2023-01-31T07:31:48;21.30;40.80
76607;DHT22;65498;50.916;4.698;2023-01-31T07:34:16;21.30;40.70
76607;DHT22;65498;50.916;4.698;2023-01-31T07:36:44;21.40;40.50
76607;DHT22;65498;50.916;4.698;2023-01-31T07:39:12;21.30;40.40
76607;DHT22;65498;50.916;4.698;2023-01-31T07:41:39;21.30;40.60
76607;DHT22;65498;50.916;4.698;2023-01-31T07:44:07;21.40;41.20
76607;DHT22;65498;50.916;4.698;2023-01-31T07:46:39;21.30;40.20
76607;DHT22;65498;50.916;4.698;2023-01-31T07:49:09;21.30;40.40
76607;DHT22;65498;50.916;4.698;2023-01-31T07:51:37;21.30;40.40
76607;DHT22;65498;50.916;4.698;2023-01-31T07:54:10;21.30;40.10
76607;DHT22;65498;50.916;4.698;2023-01-31T07:56:38;21.30;40.50
76607;DHT22;65498;50.916;4.698;2023-01-31T07:59:05;21.30;40.20
76607;DHT22;65498;50.916;4.698;2023-01-31T08:01:34;21.40;40.10
76607;DHT22;65498;50.916;4.698;2023-01-31T08:04:20;21.30;39.90
76607;DHT22;65498;50.916;4.698;2023-01-31T08:06:49;21.30;40.10
76607;DHT22;65498;50.916;4.698;2023-01-31T08:09:17;21.40;40.90
76607;DHT22;65498;50.916;4.698;2023-01-31T08:11:44;21.40;40.50
76607;DHT22;65498;50.916;4.698;2023-01-31T08:14:12;21.30;41.00
76607;DHT22;65498;50.916;4.698;2023-01-31T08:16:39;21.30;40.90
76607;DHT22;65498;50.916;4.698;2023-01-31T08:19:07;21.50;40.40
76607;DHT22;65498;50.916;4.698;2023-01-31T08:21:34;21.30;40.30
76607;DHT22;65498;50.916;4.698;2023-01-31T08:24:02;21.40;40.30
76607;DHT22;65498;50.916;4.698;2023-01-31T08:26:30;21.40;39.80
76607;DHT22;65498;50.916;4.698;2023-01-31T08:28:57;21.50;40.20
76607;DHT22;65498;50.916;4.698;2023-01-31T08:31:26;21.50;39.80
76607;DHT22;65498;50.916;4.698;2023-01-31T08:33:55;21.60;39.30
76607;DHT22;65498;50.916;4.698;2023-01-31T08:36:25;21.70;38.90
76607;DHT22;65498;50.916;4.698;2023-01-31T08:38:53;21.70;38.70
76607;DHT22;65498;50.916;4.698;2023-01-31T08:41:22;21.70;38.50
76607;DHT22;65498;50.916;4.698;2023-01-31T08:43:50;21.70;38.40
76607;DHT22;65498;50.916;4.698;2023-01-31T08:46:19;21.80;38.30
76607;DHT22;65498;50.916;4.698;2023-01-31T08:48:47;21.80;38.30
76607;DHT22;65498;50.916;4.698;2023-01-31T08:51:14;21.80;37.70
76607;DHT22;65498;50.916;4.698;2023-01-31T08:53:43;21.80;38.10
76607;DHT22;65498;50.916;4.698;2023-01-31T08:56:12;21.80;38.10
76607;DHT22;65498;50.916;4.698;2023-01-31T08:58:41;21.90;38.10
76607;DHT22;65498;50.916;4.698;2023-01-31T09:01:12;21.80;38.10
76607;DHT22;65498;50.916;4.698;2023-01-31T09:03:40;21.80;38.10
76607;DHT22;65498;50.916;4.698;2023-01-31T09:06:11;21.80;38.00
76607;DHT22;65498;50.916;4.698;2023-01-31T09:08:39;21.80;37.80
76607;DHT22;65498;50.916;4.698;2023-01-31T09:11:06;21.80;37.80
76607;DHT22;65498;50.916;4.698;2023-01-31T09:13:34;21.80;37.70
76607;DHT22;65498;50.916;4.698;2023-01-31T09:16:04;21.90;37.70
76607;DHT22;65498;50.916;4.698;2023-01-31T09:18:34;21.90;37.70
76607;DHT22;65498;50.916;4.698;2023-01-31T09:21:06;21.90;37.70
76607;DHT22;65498;50.916;4.698;2023-01-31T09:23:34;21.80;37.80
76607;DHT22;65498;50.916;4.698;2023-01-31T09:26:03;21.70;38.00
76607;DHT22;65498;50.916;4.698;2023-01-31T09:28:30;21.80;37.90
76607;DHT22;65498;50.916;4.698;2023-01-31T09:31:06;21.80;37.50
76607;DHT22;65498;50.916;4.698;2023-01-31T09:33:35;21.80;37.90
76607;DHT22;65498;50.916;4.698;2023-01-31T09:36:05;21.80;38.00
76607;DHT22;65498;50.916;4.698;2023-01-31T09:38:34;21.80;38.60
76607;DHT22;65498;50.916;4.698;2023-01-31T09:41:18;21.80;38.10
76607;DHT22;65498;50.916;4.698;2023-01-31T09:43:40;21.80;38.30
76607;DHT22;65498;50.916;4.698;2023-01-31T09:46:12;21.80;38.20
76607;DHT22;65498;50.916;4.698;2023-01-31T09:48:41;21.80;38.40
76607;DHT22;65498;50.916;4.698;2023-01-31T09:51:11;21.80;38.40
76607;DHT22;65498;50.916;4.698;2023-01-31T09:53:40;21.80;38.40
76607;DHT22;65498;50.916;4.698;2023-01-31T09:56:21;21.80;38.30
76607;DHT22;65498;50.916;4.698;2023-01-31T09:58:54;21.80;38.40
76607;DHT22;65498;50.916;4.698;2023-01-31T10:01:24;21.90;38.30
76607;DHT22;65498;50.916;4.698;2023-01-31T10:04:00;21.90;38.30
76607;DHT22;65498;50.916;4.698;2023-01-31T10:06:33;21.90;38.20
76607;DHT22;65498;50.916;4.698;2023-01-31T10:09:11;21.90;38.50
76607;DHT22;65498;50.916;4.698;2023-01-31T10:11:46;21.90;38.20
76607;DHT22;65498;50.916;4.698;2023-01-31T10:14:32;21.90;38.10
76607;DHT22;65498;50.916;4.698;2023-01-31T10:19:58;21.90;38.10
76607;DHT22;65498;50.916;4.698;2023-01-31T10:25:20;21.90;38.10
76607;DHT22;65498;50.916;4.698;2023-01-31T10:27:50;21.90;38.00
76607;DHT22;65498;50.916;4.698;2023-01-31T10:30:20;21.90;38.00
76607;DHT22;65498;50.916;4.698;2023-01-31T10:33:05;21.90;38.10
76607;DHT22;65498;50.916;4.698;2023-01-31T10:35:34;22.00;38.10
76607;DHT22;65498;50.916;4.698;2023-01-31T10:38:06;22.00;37.90
76607;DHT22;65498;50.916;4.698;2023-01-31T10:40:38;22.00;37.90
76607;DHT22;65498;50.916;4.698;2023-01-31T10:45:36;22.00;37.80
76607;DHT22;65498;50.916;4.698;2023-01-31T10:48:19;22.00;37.60
76607;DHT22;65498;50.916;4.698;2023-01-31T10:56:40;22.00;37.90
76607;DHT22;65498;50.916;4.698;2023-01-31T10:59:20;22.00;38.00
76607;DHT22;65498;50.916;4.698;2023-01-31T11:01:46;22.10;38.60
76607;DHT22;65498;50.916;4.698;2023-01-31T11:04:26;22.10;37.90
76607;DHT22;65498;50.916;4.698;2023-01-31T11:06:53;22.10;38.00
76607;DHT22;65498;50.916;4.698;2023-01-31T11:09:22;22.20;38.10
76607;DHT22;65498;50.916;4.698;2023-01-31T11:11:59;22.20;38.00
76607;DHT22;65498;50.916;4.698;2023-01-31T11:14:27;22.20;38.10
76607;DHT22;65498;50.916;4.698;2023-01-31T11:17:07;22.20;38.10
76607;DHT22;65498;50.916;4.698;2023-01-31T11:19:40;22.10;38.10
76607;DHT22;65498;50.916;4.698;2023-01-31T11:22:07;22.10;38.00
76607;DHT22;65498;50.916;4.698;2023-01-31T11:24:38;22.10;38.70
76607;DHT22;65498;50.916;4.698;2023-01-31T11:27:11;22.10;38.10
76607;DHT22;65498;50.916;4.698;2023-01-31T11:29:44;22.10;38.10
76607;DHT22;65498;50.916;4.698;2023-01-31T11:32:21;22.10;38.20
76607;DHT22;65498;50.916;4.698;2023-01-31T11:35:00;22.00;38.30
76607;DHT22;65498;50.916;4.698;2023-01-31T11:37:30;22.00;38.50
76607;DHT22;65498;50.916;4.698;2023-01-31T11:40:00;22.00;38.60
76607;DHT22;65498;50.916;4.698;2023-01-31T11:42:28;22.00;38.50
76607;DHT22;65498;50.916;4.698;2023-01-31T11:45:02;22.10;38.40
76607;DHT22;65498;50.916;4.698;2023-01-31T11:50:20;22.10;38.30
76607;DHT22;65498;50.916;4.698;2023-01-31T11:52:57;22.10;38.30
76607;DHT22;65498;50.916;4.698;2023-01-31T11:55:26;22.10;38.50
76607;DHT22;65498;50.916;4.698;2023-01-31T11:57:57;22.20;38.70
76607;DHT22;65498;50.916;4.698;2023-01-31T12:00:30;22.10;38.70
76607;DHT22;65498;50.916;4.698;2023-01-31T12:03:06;22.20;38.50
76607;DHT22;65498;50.916;4.698;2023-01-31T12:05:37;22.20;38.50
76607;DHT22;65498;50.916;4.698;2023-01-31T12:08:08;22.20;38.10
76607;DHT22;65498;50.916;4.698;2023-01-31T12:10:41;22.20;38.50
76607;DHT22;65498;50.916;4.698;2023-01-31T12:13:18;22.20;38.20
76607;DHT22;65498;50.916;4.698;2023-01-31T12:15:57;22.30;38.40
76607;DHT22;65498;50.916;4.698;2023-01-31T12:24:00;22.30;38.10
76607;DHT22;65498;50.916;4.698;2023-01-31T12:26:49;22.30;38.10
76607;DHT22;65498;50.916;4.698;2023-01-31T12:35:25;22.30;38.00
76607;DHT22;65498;50.916;4.698;2023-01-31T12:37:39;22.40;38.00
76607;DHT22;65498;50.916;4.698;2023-01-31T12:42:58;22.40;38.00
76607;DHT22;65498;50.916;4.698;2023-01-31T12:53:53;22.40;38.00
76607;DHT22;65498;50.916;4.698;2023-01-31T12:56:26;22.40;38.00
76607;DHT22;65498;50.916;4.698;2023-01-31T13:06:59;22.40;38.00
76607;DHT22;65498;50.916;4.698;2023-01-31T13:09:32;22.40;38.10
76607;DHT22;65498;50.916;4.698;2023-01-31T13:15:01;22.40;37.90
76607;DHT22;65498;50.916;4.698;2023-01-31T13:17:32;22.50;37.80
76607;DHT22;65498;50.916;4.698;2023-01-31T13:22:51;22.40;37.90
76607;DHT22;65498;50.916;4.698;2023-01-31T13:25:28;22.40;38.00
76607;DHT22;65498;50.916;4.698;2023-01-31T13:30:50;22.30;38.20
76607;DHT22;65498;50.916;4.698;2023-01-31T13:38:53;22.10;38.00
76607;DHT22;65498;50.916;4.698;2023-01-31T13:43:58;22.00;38.30
76607;DHT22;65498;50.916;4.698;2023-01-31T13:46:30;22.10;38.50
76607;DHT22;65498;50.916;4.698;2023-01-31T13:49:00;22.00;38.80
76607;DHT22;65498;50.916;4.698;2023-01-31T13:54:15;22.00;39.00
76607;DHT22;65498;50.916;4.698;2023-01-31T13:56:51;22.00;38.90
76607;DHT22;65498;50.916;4.698;2023-01-31T13:59:17;21.90;39.00
76607;DHT22;65498;50.916;4.698;2023-01-31T14:01:46;22.00;38.90
76607;DHT22;65498;50.916;4.698;2023-01-31T14:14:50;21.90;39.00
76607;DHT22;65498;50.916;4.698;2023-01-31T14:20:05;21.90;38.90
76607;DHT22;65498;50.916;4.698;2023-01-31T14:22:38;22.00;38.90
76607;DHT22;65498;50.916;4.698;2023-01-31T14:25:12;22.00;38.90
76607;DHT22;65498;50.916;4.698;2023-01-31T14:41:35;22.00;39.10
76607;DHT22;65498;50.916;4.698;2023-01-31T14:44:27;21.90;39.30
76607;DHT22;65498;50.916;4.698;2023-01-31T14:49:59;21.90;39.20
76607;DHT22;65498;50.916;4.698;2023-01-31T14:58:26;21.90;39.20
76607;DHT22;65498;50.916;4.698;2023-01-31T15:00:57;21.90;39.10
76607;DHT22;65498;50.916;4.698;2023-01-31T15:03:29;21.90;39.40
76607;DHT22;65498;50.916;4.698;2023-01-31T15:06:12;21.90;39.40
76607;DHT22;65498;50.916;4.698;2023-01-31T15:09:15;21.90;39.40
76607;DHT22;65498;50.916;4.698;2023-01-31T15:11:41;22.00;39.30
76607;DHT22;65498;50.916;4.698;2023-01-31T15:17:00;22.00;39.30
76607;DHT22;65498;50.916;4.698;2023-01-31T15:19:40;22.00;39.30
76607;DHT22;65498;50.916;4.698;2023-01-31T15:22:07;22.00;39.30
76607;DHT22;65498;50.916;4.698;2023-01-31T15:24:32;22.10;39.40
76607;DHT22;65498;50.916;4.698;2023-01-31T15:27:03;22.00;39.30
76607;DHT22;65498;50.916;4.698;2023-01-31T15:29:45;22.00;39.20
76607;DHT22;65498;50.916;4.698;2023-01-31T15:32:17;22.00;39.40
76607;DHT22;65498;50.916;4.698;2023-01-31T15:34:46;22.00;39.40
76607;DHT22;65498;50.916;4.698;2023-01-31T15:37:29;22.00;39.40
76607;DHT22;65498;50.916;4.698;2023-01-31T15:39:54;22.10;39.40
76607;DHT22;65498;50.916;4.698;2023-01-31T15:42:32;22.00;39.40
76607;DHT22;65498;50.916;4.698;2023-01-31T15:45:20;22.00;39.50
76607;DHT22;65498;50.916;4.698;2023-01-31T15:47:59;22.00;39.50
76607;DHT22;65498;50.916;4.698;2023-01-31T15:50:32;22.00;39.50
76607;DHT22;65498;50.916;4.698;2023-01-31T15:53:05;22.00;39.50
76607;DHT22;65498;50.916;4.698;2023-01-31T15:55:34;22.00;39.50
76607;DHT22;65498;50.916;4.698;2023-01-31T15:58:03;22.00;39.60
76607;DHT22;65498;50.916;4.698;2023-01-31T16:00:34;21.90;39.80
76607;DHT22;65498;50.916;4.698;2023-01-31T16:03:04;22.00;39.60
76607;DHT22;65498;50.916;4.698;2023-01-31T16:05:35;22.00;39.60
76607;DHT22;65498;50.916;4.698;2023-01-31T16:08:19;22.00;39.50
76607;DHT22;65498;50.916;4.698;2023-01-31T16:10:44;22.10;39.60
76607;DHT22;65498;50.916;4.698;2023-01-31T16:13:14;22.10;39.70
76607;DHT22;65498;50.916;4.698;2023-01-31T16:15:42;22.00;39.80
76607;DHT22;65498;50.916;4.698;2023-01-31T16:18:11;22.10;39.80
76607;DHT22;65498;50.916;4.698;2023-01-31T16:20:45;22.00;39.90
76607;DHT22;65498;50.916;4.698;2023-01-31T16:23:30;22.00;39.90
76607;DHT22;65498;50.916;4.698;2023-01-31T16:28:35;22.00;40.00
76607;DHT22;65498;50.916;4.698;2023-01-31T16:31:05;22.10;40.20
76607;DHT22;65498;50.916;4.698;2023-01-31T16:33:34;22.10;40.20
76607;DHT22;65498;50.916;4.698;2023-01-31T16:36:05;22.10;40.20
76607;DHT22;65498;50.916;4.698;2023-01-31T16:38:33;22.10;40.30
76607;DHT22;65498;50.916;4.698;2023-01-31T16:41:01;22.10;40.50
76607;DHT22;65498;50.916;4.698;2023-01-31T16:43:30;22.10;40.80
76607;DHT22;65498;50.916;4.698;2023-01-31T16:46:01;22.10;40.60
76607;DHT22;65498;50.916;4.698;2023-01-31T16:48:38;22.10;40.70
76607;DHT22;65498;50.916;4.698;2023-01-31T16:54:15;22.10;41.00
76607;DHT22;65498;50.916;4.698;2023-01-31T16:56:44;22.10;41.00
76607;DHT22;65498;50.916;4.698;2023-01-31T17:04:40;22.10;41.20
76607;DHT22;65498;50.916;4.698;2023-01-31T17:07:16;22.10;41.40
76607;DHT22;65498;50.916;4.698;2023-01-31T17:09:46;22.20;41.50
76607;DHT22;65498;50.916;4.698;2023-01-31T17:12:25;22.10;41.80
76607;DHT22;65498;50.916;4.698;2023-01-31T17:14:54;22.20;41.90
76607;DHT22;65498;50.916;4.698;2023-01-31T17:17:26;22.20;42.10
76607;DHT22;65498;50.916;4.698;2023-01-31T17:19:54;22.20;42.10
76607;DHT22;65498;50.916;4.698;2023-01-31T17:22:22;22.10;42.30
76607;DHT22;65498;50.916;4.698;2023-01-31T17:24:50;22.20;42.40
76607;DHT22;65498;50.916;4.698;2023-01-31T17:27:18;22.30;42.40
76607;DHT22;65498;50.916;4.698;2023-01-31T17:29:46;22.30;42.50
